sensor_id;sensor_type;location;lat;lon;timestamp;pressure;altitude;pressure_sealevel;temperature;humidity
55289;BME280;41154;45.394;5.734;2022-08-21T00:02:18;97106.94;;;16.46;100.00
55289;BME280;41154;45.394;5.734;2022-08-21T00:04:46;97103.28;;;16.32;100.00
55289;BME280;41154;45.394;5.734;2022-08-21T00:07:12;97098.91;;;16.36;100.00
55289;BME280;41154;45.394;5.734;2022-08-21T00:09:38;97098.63;;;16.38;100.00
55289;BME280;41154;45.394;5.734;2022-08-21T00:12:04;97099.78;;;16.31;100.00
55289;BME280;41154;45.394;5.734;2022-08-21T00:14:31;97096.47;;;16.34;100.00
55289;BME280;41154;45.394;5.734;2022-08-21T00:16:57;97093.59;;;16.26;100.00
55289;BME280;41154;45.394;5.734;2022-08-21T00:19:23;97105.00;;;16.23;100.00
55289;BME280;41154;45.394;5.734;2022-08-21T00:21:51;97107.50;;;16.14;100.00
55289;BME280;41154;45.394;5.734;2022-08-21T00:24:19;97109.72;;;16.07;100.00
55289;BME280;41154;45.394;5.734;2022-08-21T00:26:45;97113.81;;;16.04;100.00
55289;BME280;41154;45.394;5.734;2022-08-21T00:29:11;97112.19;;;16.03;100.00
55289;BME280;41154;45.394;5.734;2022-08-21T00:31:37;97108.66;;;16.03;100.00
55289;BME280;41154;45.394;5.734;2022-08-21T00:34:03;97108.97;;;16.01;100.00
55289;BME280;41154;45.394;5.734;2022-08-21T00:36:29;97109.56;;;15.93;100.00
55289;BME280;41154;45.394;5.734;2022-08-21T00:38:56;97107.88;;;15.97;100.00
55289;BME280;41154;45.394;5.734;2022-08-21T00:41:22;97108.38;;;16.04;100.00
55289;BME280;41154;45.394;5.734;2022-08-21T00:43:49;97109.44;;;16.08;100.00
55289;BME280;41154;45.394;5.734;2022-08-21T00:46:16;97108.34;;;16.09;100.00
55289;BME280;41154;45.394;5.734;2022-08-21T00:48:42;97104.03;;;16.08;100.00
55289;BME280;41154;45.394;5.734;2022-08-21T00:51:17;97113.56;;;16.01;100.00
55289;BME280;41154;45.394;5.734;2022-08-21T00:53:50;97111.94;;;15.99;100.00
55289;BME280;41154;45.394;5.734;2022-08-21T00:56:19;97104.91;;;15.98;100.00
55289;BME280;41154;45.394;5.734;2022-08-21T00:58:47;97103.59;;;15.96;100.00
55289;BME280;41154;45.394;5.734;2022-08-21T01:01:14;97098.59;;;15.74;100.00
55289;BME280;41154;45.394;5.734;2022-08-21T01:03:40;97104.28;;;15.72;100.00
55289;BME280;41154;45.394;5.734;2022-08-21T01:06:07;97107.03;;;15.62;100.00
55289;BME280;41154;45.394;5.734;2022-08-21T01:08:35;97107.53;;;15.69;100.00
55289;BME280;41154;45.394;5.734;2022-08-21T01:11:01;97106.72;;;15.69;100.00
55289;BME280;41154;45.394;5.734;2022-08-21T01:13:30;97099.38;;;15.74;100.00
55289;BME280;41154;45.394;5.734;2022-08-21T01:15:59;97098.28;;;15.80;100.00
55289;BME280;41154;45.394;5.734;2022-08-21T01:18:26;97098.34;;;16.10;100.00
55289;BME280;41154;45.394;5.734;2022-08-21T01:21:00;97097.41;;;15.90;100.00
55289;BME280;41154;45.394;5.734;2022-08-21T01:23:26;97096.38;;;15.81;100.00
55289;BME280;41154;45.394;5.734;2022-08-21T01:25:53;97086.13;;;15.78;100.00
55289;BME280;41154;45.394;5.734;2022-08-21T01:28:19;97094.91;;;15.99;100.00
55289;BME280;41154;45.394;5.734;2022-08-21T01:30:46;97086.75;;;16.04;100.00
55289;BME280;41154;45.394;5.734;2022-08-21T01:33:14;97085.78;;;15.85;100.00
55289;BME280;41154;45.394;5.734;2022-08-21T01:35:39;97084.03;;;15.64;100.00
55289;BME280;41154;45.394;5.734;2022-08-21T01:38:05;97077.28;;;15.62;100.00
55289;BME280;41154;45.394;5.734;2022-08-21T01:40:31;97081.94;;;15.51;100.00
55289;BME280;41154;45.394;5.734;2022-08-21T01:42:57;97082.75;;;15.57;100.00
55289;BME280;41154;45.394;5.734;2022-08-21T01:45:22;97069.69;;;15.64;100.00
55289;BME280;41154;45.394;5.734;2022-08-21T01:47:48;97078.53;;;15.75;100.00
55289;BME280;41154;45.394;5.734;2022-08-21T01:50:17;97077.94;;;15.88;100.00
55289;BME280;41154;45.394;5.734;2022-08-21T01:52:44;97069.22;;;15.52;100.00
55289;BME280;41154;45.394;5.734;2022-08-21T01:55:11;97068.53;;;15.36;100.00
55289;BME280;41154;45.394;5.734;2022-08-21T01:57:38;97071.47;;;15.39;100.00
55289;BME280;41154;45.394;5.734;2022-08-21T02:00:09;97062.78;;;15.48;100.00
55289;BME280;41154;45.394;5.734;2022-08-21T02:02:38;97061.06;;;15.62;100.00
55289;BME280;41154;45.394;5.734;2022-08-21T02:05:04;97070.81;;;15.63;100.00
55289;BME280;41154;45.394;5.734;2022-08-21T02:07:45;97065.97;;;15.55;100.00
55289;BME280;41154;45.394;5.734;2022-08-21T02:10:14;97071.47;;;15.39;100.00
55289;BME280;41154;45.394;5.734;2022-08-21T02:12:40;97056.88;;;15.40;100.00
55289;BME280;41154;45.394;5.734;2022-08-21T02:15:07;97063.88;;;15.46;100.00
55289;BME280;41154;45.394;5.734;2022-08-21T02:17:53;97063.22;;;15.65;100.00
55289;BME280;41154;45.394;5.734;2022-08-21T02:22:51;97055.19;;;15.50;100.00
55289;BME280;41154;45.394;5.734;2022-08-21T02:25:18;97059.06;;;15.38;100.00
55289;BME280;41154;45.394;5.734;2022-08-21T02:27:46;97055.25;;;15.39;100.00
55289;BME280;41154;45.394;5.734;2022-08-21T02:30:28;97058.22;;;15.38;100.00
55289;BME280;41154;45.394;5.734;2022-08-21T02:32:55;97058.31;;;15.27;100.00
55289;BME280;41154;45.394;5.734;2022-08-21T02:35:21;97049.50;;;15.51;100.00
55289;BME280;41154;45.394;5.734;2022-08-21T02:37:55;97054.50;;;15.28;100.00
55289;BME280;41154;45.394;5.734;2022-08-21T02:40:23;97050.91;;;15.43;100.00
55289;BME280;41154;45.394;5.734;2022-08-21T02:42:50;97040.78;;;15.20;100.00
55289;BME280;41154;45.394;5.734;2022-08-21T02:45:17;97038.41;;;15.13;100.00
55289;BME280;41154;45.394;5.734;2022-08-21T02:47:51;97036.25;;;15.10;100.00
55289;BME280;41154;45.394;5.734;2022-08-21T02:50:22;97032.72;;;15.09;100.00
55289;BME280;41154;45.394;5.734;2022-08-21T02:52:48;97030.84;;;15.10;100.00
55289;BME280;41154;45.394;5.734;2022-08-21T02:55:16;97019.22;;;15.09;100.00
55289;BME280;41154;45.394;5.734;2022-08-21T02:57:41;97028.41;;;15.08;100.00
55289;BME280;41154;45.394;5.734;2022-08-21T03:00:08;97031.69;;;15.05;100.00
55289;BME280;41154;45.394;5.734;2022-08-21T03:02:36;97027.38;;;14.99;100.00
55289;BME280;41154;45.394;5.734;2022-08-21T03:05:08;97030.09;;;14.94;100.00
55289;BME280;41154;45.394;5.734;2022-08-21T03:07:44;97029.28;;;14.94;100.00
55289;BME280;41154;45.394;5.734;2022-08-21T03:10:15;97026.59;;;14.94;100.00
55289;BME280;41154;45.394;5.734;2022-08-21T03:12:45;97015.53;;;14.85;100.00
55289;BME280;41154;45.394;5.734;2022-08-21T03:15:18;97021.19;;;14.94;100.00
55289;BME280;41154;45.394;5.734;2022-08-21T03:17:51;97010.91;;;15.01;100.00
55289;BME280;41154;45.394;5.734;2022-08-21T03:20:29;97017.63;;;15.03;100.00
55289;BME280;41154;45.394;5.734;2022-08-21T03:23:11;97016.06;;;14.92;100.00
55289;BME280;41154;45.394;5.734;2022-08-21T03:25:42;97019.34;;;14.84;100.00
55289;BME280;41154;45.394;5.734;2022-08-21T03:28:21;97017.13;;;14.91;100.00
55289;BME280;41154;45.394;5.734;2022-08-21T03:30:52;97015.13;;;15.17;100.00
55289;BME280;41154;45.394;5.734;2022-08-21T03:33:23;97011.56;;;15.22;100.00
55289;BME280;41154;45.394;5.734;2022-08-21T03:36:00;97006.34;;;14.96;100.00
55289;BME280;41154;45.394;5.734;2022-08-21T03:38:33;96999.91;;;14.82;100.00
55289;BME280;41154;45.394;5.734;2022-08-21T03:41:08;96997.50;;;14.75;100.00
55289;BME280;41154;45.394;5.734;2022-08-21T03:43:36;97004.81;;;14.74;100.00
55289;BME280;41154;45.394;5.734;2022-08-21T03:46:04;96997.28;;;14.61;100.00
55289;BME280;41154;45.394;5.734;2022-08-21T03:48:30;96996.75;;;14.64;100.00
55289;BME280;41154;45.394;5.734;2022-08-21T03:50:56;97000.28;;;14.49;100.00
55289;BME280;41154;45.394;5.734;2022-08-21T03:53:22;96993.75;;;14.71;100.00
55289;BME280;41154;45.394;5.734;2022-08-21T03:55:49;97003.25;;;14.53;100.00
55289;BME280;41154;45.394;5.734;2022-08-21T03:58:18;97001.66;;;14.36;100.00
55289;BME280;41154;45.394;5.734;2022-08-21T04:00:46;97004.34;;;14.36;100.00
55289;BME280;41154;45.394;5.734;2022-08-21T04:03:12;96997.63;;;14.29;100.00
55289;BME280;41154;45.394;5.734;2022-08-21T04:05:38;96995.47;;;14.31;100.00
55289;BME280;41154;45.394;5.734;2022-08-21T04:08:05;97010.28;;;14.44;100.00
55289;BME280;41154;45.394;5.734;2022-08-21T04:10:34;96996.25;;;14.36;100.00
55289;BME280;41154;45.394;5.734;2022-08-21T04:13:00;97002.75;;;14.35;100.00
55289;BME280;41154;45.394;5.734;2022-08-21T04:15:26;96994.38;;;14.42;100.00
55289;BME280;41154;45.394;5.734;2022-08-21T04:17:52;97002.16;;;14.49;100.00
55289;BME280;41154;45.394;5.734;2022-08-21T04:20:19;97001.66;;;14.42;100.00
55289;BME280;41154;45.394;5.734;2022-08-21T04:22:47;97002.09;;;14.74;100.00
55289;BME280;41154;45.394;5.734;2022-08-21T04:25:14;97000.00;;;14.56;100.00
55289;BME280;41154;45.394;5.734;2022-08-21T04:27:41;97004.31;;;14.57;100.00
55289;BME280;41154;45.394;5.734;2022-08-21T04:30:08;97004.31;;;14.57;100.00
55289;BME280;41154;45.394;5.734;2022-08-21T04:32:38;97011.34;;;14.63;100.00
55289;BME280;41154;45.394;5.734;2022-08-21T04:35:09;97000.22;;;14.75;100.00
55289;BME280;41154;45.394;5.734;2022-08-21T04:37:36;97007.66;;;15.04;100.00
55289;BME280;41154;45.394;5.734;2022-08-21T04:40:03;97005.47;;;15.06;100.00
55289;BME280;41154;45.394;5.734;2022-08-21T04:42:29;97007.81;;;14.68;100.00
55289;BME280;41154;45.394;5.734;2022-08-21T04:44:55;97010.50;;;14.63;100.00
55289;BME280;41154;45.394;5.734;2022-08-21T04:47:22;97015.09;;;14.67;100.00
55289;BME280;41154;45.394;5.734;2022-08-21T04:49:49;97017.44;;;14.84;100.00
55289;BME280;41154;45.394;5.734;2022-08-21T04:52:19;97025.88;;;14.72;100.00
55289;BME280;41154;45.394;5.734;2022-08-21T04:54:47;97025.38;;;14.65;100.00
55289;BME280;41154;45.394;5.734;2022-08-21T04:57:15;97029.91;;;14.75;100.00
55289;BME280;41154;45.394;5.734;2022-08-21T04:59:47;97019.28;;;14.99;100.00
55289;BME280;41154;45.394;5.734;2022-08-21T05:02:13;97029.53;;;15.02;100.00
55289;BME280;41154;45.394;5.734;2022-08-21T05:04:51;97044.22;;;14.81;100.00
55289;BME280;41154;45.394;5.734;2022-08-21T05:07:22;97042.03;;;14.83;100.00
55289;BME280;41154;45.394;5.734;2022-08-21T05:09:50;97046.31;;;14.89;100.00
55289;BME280;41154;45.394;5.734;2022-08-21T05:12:17;97043.88;;;14.98;100.00
55289;BME280;41154;45.394;5.734;2022-08-21T05:14:42;97040.91;;;14.94;100.00
55289;BME280;41154;45.394;5.734;2022-08-21T05:17:09;97043.88;;;14.98;100.00
55289;BME280;41154;45.394;5.734;2022-08-21T05:19:35;97046.56;;;14.98;100.00
55289;BME280;41154;45.394;5.734;2022-08-21T05:22:01;97045.53;;;14.88;100.00
55289;BME280;41154;45.394;5.734;2022-08-21T05:24:27;97048.47;;;14.92;100.00
55289;BME280;41154;45.394;5.734;2022-08-21T05:26:53;97048.94;;;15.15;100.00
55289;BME280;41154;45.394;5.734;2022-08-21T05:29:19;97052.25;;;14.96;100.00
55289;BME280;41154;45.394;5.734;2022-08-21T05:31:46;97056.53;;;14.97;100.00
55289;BME280;41154;45.394;5.734;2022-08-21T05:34:14;97058.78;;;14.80;100.00
55289;BME280;41154;45.394;5.734;2022-08-21T05:36:40;97055.25;;;14.84;100.00
55289;BME280;41154;45.394;5.734;2022-08-21T05:39:06;97057.38;;;14.98;100.00
55289;BME280;41154;45.394;5.734;2022-08-21T05:41:32;97057.09;;;14.94;100.00
55289;BME280;41154;45.394;5.734;2022-08-21T05:43:58;97060.34;;;14.96;100.00
55289;BME280;41154;45.394;5.734;2022-08-21T05:46:24;97058.13;;;15.03;100.00
55289;BME280;41154;45.394;5.734;2022-08-21T05:48:49;97061.47;;;14.90;100.00
55289;BME280;41154;45.394;5.734;2022-08-21T05:51:15;97054.88;;;15.12;100.00
55289;BME280;41154;45.394;5.734;2022-08-21T05:53:42;97061.63;;;15.09;100.00
55289;BME280;41154;45.394;5.734;2022-08-21T05:56:09;97056.25;;;15.09;100.00
55289;BME280;41154;45.394;5.734;2022-08-21T05:58:35;97061.47;;;14.90;100.00
55289;BME280;41154;45.394;5.734;2022-08-21T06:01:02;97056.53;;;14.97;100.00
55289;BME280;41154;45.394;5.734;2022-08-21T06:03:33;97056.50;;;15.07;100.00
55289;BME280;41154;45.394;5.734;2022-08-21T06:06:00;97054.91;;;15.01;100.00
55289;BME280;41154;45.394;5.734;2022-08-21T06:08:27;97063.50;;;15.14;100.00
55289;BME280;41154;45.394;5.734;2022-08-21T06:10:55;97064.06;;;15.10;100.00
55289;BME280;41154;45.394;5.734;2022-08-21T06:13:21;97064.06;;;16.29;100.00
55289;BME280;41154;45.394;5.734;2022-08-21T06:15:48;97066.56;;;19.93;100.00
55289;BME280;41154;45.394;5.734;2022-08-21T06:18:14;97074.28;;;20.22;100.00
55289;BME280;41154;45.394;5.734;2022-08-21T06:20:41;97069.34;;;21.80;100.00
55289;BME280;41154;45.394;5.734;2022-08-21T06:23:07;97071.63;;;24.09;100.00
55289;BME280;41154;45.394;5.734;2022-08-21T06:25:33;97071.00;;;25.97;74.38
55289;BME280;41154;45.394;5.734;2022-08-21T06:28:09;97077.66;;;26.25;74.92
55289;BME280;41154;45.394;5.734;2022-08-21T06:30:37;97083.19;;;23.94;87.02
55289;BME280;41154;45.394;5.734;2022-08-21T06:33:04;97074.63;;;23.23;88.49
55289;BME280;41154;45.394;5.734;2022-08-21T06:35:30;97082.88;;;24.87;79.93
55289;BME280;41154;45.394;5.734;2022-08-21T06:37:56;97080.63;;;25.14;76.95
55289;BME280;41154;45.394;5.734;2022-08-21T06:40:23;97083.31;;;22.87;87.04
55289;BME280;41154;45.394;5.734;2022-08-21T06:42:49;97081.88;;;22.89;88.98
55289;BME280;41154;45.394;5.734;2022-08-21T06:45:15;97080.38;;;22.92;87.07
55289;BME280;41154;45.394;5.734;2022-08-21T06:47:41;97086.38;;;20.93;100.00
55289;BME280;41154;45.394;5.734;2022-08-21T06:50:07;97093.84;;;20.24;100.00
55289;BME280;41154;45.394;5.734;2022-08-21T06:52:37;97087.81;;;22.09;92.72
55289;BME280;41154;45.394;5.734;2022-08-21T06:55:07;97090.22;;;20.92;100.00
55289;BME280;41154;45.394;5.734;2022-08-21T06:57:34;97090.19;;;20.29;100.00
55289;BME280;41154;45.394;5.734;2022-08-21T06:59:59;97085.38;;;20.26;100.00
55289;BME280;41154;45.394;5.734;2022-08-21T07:02:25;97088.41;;;20.56;100.00
55289;BME280;41154;45.394;5.734;2022-08-21T07:04:51;97078.19;;;21.50;97.02
55289;BME280;41154;45.394;5.734;2022-08-21T07:07:17;97071.59;;;22.86;85.98
55289;BME280;41154;45.394;5.734;2022-08-21T07:09:43;97071.28;;;23.68;86.37
55289;BME280;41154;45.394;5.734;2022-08-21T07:12:09;97073.25;;;23.89;85.94
55289;BME280;41154;45.394;5.734;2022-08-21T07:14:35;97074.16;;;24.60;80.63
55289;BME280;41154;45.394;5.734;2022-08-21T07:17:01;97079.22;;;24.70;78.82
55289;BME280;41154;45.394;5.734;2022-08-21T07:19:27;97076.03;;;25.18;75.81
55289;BME280;41154;45.394;5.734;2022-08-21T07:21:57;97067.25;;;27.42;68.82
55289;BME280;41154;45.394;5.734;2022-08-21T07:24:24;97075.19;;;26.96;66.77
55289;BME280;41154;45.394;5.734;2022-08-21T07:26:50;97074.63;;;23.23;82.75
55289;BME280;41154;45.394;5.734;2022-08-21T07:29:15;97066.38;;;24.50;79.57
55289;BME280;41154;45.394;5.734;2022-08-21T07:31:41;97067.19;;;28.56;60.06
55289;BME280;41154;45.394;5.734;2022-08-21T07:34:07;97069.13;;;29.21;56.89
55289;BME280;41154;45.394;5.734;2022-08-21T07:36:33;97064.41;;;28.32;56.99
55289;BME280;41154;45.394;5.734;2022-08-21T07:38:59;97069.72;;;29.91;51.78
55289;BME280;41154;45.394;5.734;2022-08-21T07:41:28;97069.38;;;30.68;49.89
55289;BME280;41154;45.394;5.734;2022-08-21T07:43:58;97064.84;;;28.77;54.29
55289;BME280;41154;45.394;5.734;2022-08-21T07:46:25;97059.91;;;28.90;52.27
55289;BME280;41154;45.394;5.734;2022-08-21T07:48:51;97062.72;;;26.10;59.69
55289;BME280;41154;45.394;5.734;2022-08-21T07:51:18;97057.34;;;30.49;49.92
55289;BME280;41154;45.394;5.734;2022-08-21T07:53:52;97053.66;;;30.04;49.46
55289;BME280;41154;45.394;5.734;2022-08-21T07:56:19;97056.78;;;30.36;48.11
55289;BME280;41154;45.394;5.734;2022-08-21T07:58:45;97050.50;;;30.02;49.09
55289;BME280;41154;45.394;5.734;2022-08-21T08:01:11;97049.03;;;27.37;54.32
55289;BME280;41154;45.394;5.734;2022-08-21T08:03:37;97041.88;;;28.07;53.28
55289;BME280;41154;45.394;5.734;2022-08-21T08:06:04;97044.53;;;29.69;49.45
55289;BME280;41154;45.394;5.734;2022-08-21T08:08:31;97040.44;;;30.24;49.76
55289;BME280;41154;45.394;5.734;2022-08-21T08:10:58;97028.47;;;32.60;43.89
55289;BME280;41154;45.394;5.734;2022-08-21T08:13:24;97026.88;;;32.52;42.43
55289;BME280;41154;45.394;5.734;2022-08-21T08:15:51;97018.97;;;32.86;42.25
55289;BME280;41154;45.394;5.734;2022-08-21T08:18:16;97025.59;;;29.71;48.54
55289;BME280;41154;45.394;5.734;2022-08-21T08:20:43;97031.50;;;32.04;44.64
55289;BME280;41154;45.394;5.734;2022-08-21T08:23:13;97035.94;;;28.71;51.41
55289;BME280;41154;45.394;5.734;2022-08-21T08:25:39;97033.59;;;28.96;53.98
55289;BME280;41154;45.394;5.734;2022-08-21T08:28:06;97023.09;;;31.83;46.25
55289;BME280;41154;45.394;5.734;2022-08-21T08:30:32;97021.38;;;33.02;42.27
55289;BME280;41154;45.394;5.734;2022-08-21T08:32:57;97025.75;;;30.54;48.95
55289;BME280;41154;45.394;5.734;2022-08-21T08:35:25;97020.91;;;32.50;43.73
55289;BME280;41154;45.394;5.734;2022-08-21T08:37:51;97014.44;;;31.99;44.56
55289;BME280;41154;45.394;5.734;2022-08-21T08:42:50;97011.53;;;31.04;47.35
55289;BME280;41154;45.394;5.734;2022-08-21T08:45:20;97003.09;;;30.03;50.41
55289;BME280;41154;45.394;5.734;2022-08-21T08:47:54;97005.13;;;30.10;50.69
55289;BME280;41154;45.394;5.734;2022-08-21T08:53:09;96995.56;;;32.94;42.78
55289;BME280;41154;45.394;5.734;2022-08-21T08:55:39;96989.13;;;33.48;43.00
55289;BME280;41154;45.394;5.734;2022-08-21T08:58:09;96979.66;;;31.28;48.98
55289;BME280;41154;45.394;5.734;2022-08-21T09:00:38;96980.09;;;31.44;50.93
55289;BME280;41154;45.394;5.734;2022-08-21T09:03:04;96984.63;;;30.15;49.11
55289;BME280;41154;45.394;5.734;2022-08-21T09:05:33;96976.59;;;30.40;49.80
55289;BME280;41154;45.394;5.734;2022-08-21T09:16:58;96965.50;;;33.92;41.43
55289;BME280;41154;45.394;5.734;2022-08-21T09:25:12;96956.75;;;29.93;51.11
55289;BME280;41154;45.394;5.734;2022-08-21T09:27:39;96960.63;;;28.97;54.11
55289;BME280;41154;45.394;5.734;2022-08-21T09:30:06;96958.88;;;28.85;55.89
55289;BME280;41154;45.394;5.734;2022-08-21T09:32:34;96960.81;;;27.53;66.83
55289;BME280;41154;45.394;5.734;2022-08-21T09:35:14;96948.00;;;27.41;60.44
55289;BME280;41154;45.394;5.734;2022-08-21T09:45:35;96952.13;;;27.71;59.91
55289;BME280;41154;45.394;5.734;2022-08-21T09:48:18;96944.09;;;27.62;61.85
55289;BME280;41154;45.394;5.734;2022-08-21T09:50:46;96937.41;;;27.24;66.32
55289;BME280;41154;45.394;5.734;2022-08-21T09:53:31;96944.09;;;27.62;60.16
55289;BME280;41154;45.394;5.734;2022-08-21T09:56:00;96943.28;;;27.42;60.10
55289;BME280;41154;45.394;5.734;2022-08-21T09:58:47;96939.41;;;27.86;59.04
55289;BME280;41154;45.394;5.734;2022-08-21T10:01:19;96931.28;;;27.93;66.58
55289;BME280;41154;45.394;5.734;2022-08-21T10:03:46;96925.38;;;26.97;61.33
55289;BME280;41154;45.394;5.734;2022-08-21T10:06:26;96923.78;;;27.51;64.78
55289;BME280;41154;45.394;5.734;2022-08-21T10:09:11;96921.25;;;27.61;59.67
55289;BME280;41154;45.394;5.734;2022-08-21T10:11:37;96915.03;;;27.09;62.79
55289;BME280;41154;45.394;5.734;2022-08-21T10:16:47;96919.88;;;26.13;66.00
55289;BME280;41154;45.394;5.734;2022-08-21T10:22:31;96911.13;;;25.79;67.07
55289;BME280;41154;45.394;5.734;2022-08-21T10:31:03;96907.28;;;25.40;71.53
55289;BME280;41154;45.394;5.734;2022-08-21T10:36:25;96901.19;;;25.75;68.40
55289;BME280;41154;45.394;5.734;2022-08-21T10:39:21;96903.94;;;25.75;66.90
55289;BME280;41154;45.394;5.734;2022-08-21T10:50:12;96898.41;;;26.19;69.13
55289;BME280;41154;45.394;5.734;2022-08-21T10:55:51;96900.31;;;25.02;72.22
55289;BME280;41154;45.394;5.734;2022-08-21T10:58:33;96897.41;;;24.70;74.02
55289;BME280;41154;45.394;5.734;2022-08-21T11:01:33;96901.59;;;24.55;72.90
55289;BME280;41154;45.394;5.734;2022-08-21T11:04:12;96893.72;;;24.78;72.69
55289;BME280;41154;45.394;5.734;2022-08-21T11:07:07;96893.72;;;24.78;72.69
55289;BME280;41154;45.394;5.734;2022-08-21T11:09:31;96885.63;;;25.51;68.96
55289;BME280;41154;45.394;5.734;2022-08-21T11:12:03;96884.75;;;25.46;71.36
55289;BME280;41154;45.394;5.734;2022-08-21T11:14:51;96889.63;;;25.97;66.96
55289;BME280;41154;45.394;5.734;2022-08-21T11:17:34;96878.91;;;25.64;67.17
55289;BME280;41154;45.394;5.734;2022-08-21T11:22:49;96885.41;;;25.72;69.89
55289;BME280;41154;45.394;5.734;2022-08-21T11:25:25;96888.88;;;25.84;67.46
55289;BME280;41154;45.394;5.734;2022-08-21T11:27:58;96898.75;;;26.17;67.61
55289;BME280;41154;45.394;5.734;2022-08-21T11:30:28;96889.19;;;25.10;70.06
55289;BME280;41154;45.394;5.734;2022-08-21T11:35:51;96885.44;;;25.43;69.10
55289;BME280;41154;45.394;5.734;2022-08-21T11:38:42;96885.78;;;26.66;65.92
55289;BME280;41154;45.394;5.734;2022-08-21T11:41:17;96897.13;;;25.84;68.15
55289;BME280;41154;45.394;5.734;2022-08-21T11:43:56;96895.47;;;25.52;68.00
55289;BME280;41154;45.394;5.734;2022-08-21T11:46:47;96889.22;;;25.67;69.04
55289;BME280;41154;45.394;5.734;2022-08-21T11:49:36;96888.38;;;25.10;69.82
55289;BME280;41154;45.394;5.734;2022-08-21T11:52:36;96885.25;;;25.24;68.72
55289;BME280;41154;45.394;5.734;2022-08-21T11:55:11;96887.09;;;25.92;67.03
55289;BME280;41154;45.394;5.734;2022-08-21T12:00:24;96882.19;;;24.72;70.58
55289;BME280;41154;45.394;5.734;2022-08-21T12:02:55;96885.25;;;24.83;70.21
55289;BME280;41154;45.394;5.734;2022-08-21T12:05:37;96879.63;;;25.61;67.25
55289;BME280;41154;45.394;5.734;2022-08-21T12:10:46;96873.63;;;25.15;66.64
55289;BME280;41154;45.394;5.734;2022-08-21T12:13:27;96875.81;;;25.50;66.45
55289;BME280;41154;45.394;5.734;2022-08-21T12:16:14;96877.34;;;24.94;68.87
55289;BME280;41154;45.394;5.734;2022-08-21T12:18:41;96888.25;;;24.78;69.20
55289;BME280;41154;45.394;5.734;2022-08-21T12:21:25;96882.00;;;25.46;66.68
55289;BME280;41154;45.394;5.734;2022-08-21T12:29:30;96884.28;;;25.89;64.65
55289;BME280;41154;45.394;5.734;2022-08-21T12:32:23;96881.44;;;26.49;62.73
55289;BME280;41154;45.394;5.734;2022-08-21T12:35:07;96869.22;;;26.14;62.94
55289;BME280;41154;45.394;5.734;2022-08-21T12:37:47;96871.53;;;25.52;65.53
55289;BME280;41154;45.394;5.734;2022-08-21T12:40:31;96867.22;;;25.51;67.46
55289;BME280;41154;45.394;5.734;2022-08-21T12:43:00;96867.81;;;26.05;63.45
55289;BME280;41154;45.394;5.734;2022-08-21T12:45:47;96870.63;;;26.40;60.63
55289;BME280;41154;45.394;5.734;2022-08-21T12:51:04;96870.22;;;25.05;66.02
55289;BME280;41154;45.394;5.734;2022-08-21T12:53:44;96868.50;;;25.70;64.39
55289;BME280;41154;45.394;5.734;2022-08-21T12:56:15;96865.84;;;26.05;66.00
55289;BME280;41154;45.394;5.734;2022-08-21T12:58:48;96869.06;;;25.47;62.85
55289;BME280;41154;45.394;5.734;2022-08-21T13:01:27;96869.53;;;25.65;65.61
55289;BME280;41154;45.394;5.734;2022-08-21T13:04:01;96862.34;;;25.60;63.79
55289;BME280;41154;45.394;5.734;2022-08-21T13:06:29;96848.06;;;26.50;67.10
55289;BME280;41154;45.394;5.734;2022-08-21T13:09:03;96845.41;;;26.70;65.62
55289;BME280;41154;45.394;5.734;2022-08-21T13:11:31;96850.63;;;26.59;61.58
55289;BME280;41154;45.394;5.734;2022-08-21T13:14:00;96855.00;;;26.44;60.81
55289;BME280;41154;45.394;5.734;2022-08-21T13:16:29;96851.91;;;26.30;60.98
55289;BME280;41154;45.394;5.734;2022-08-21T13:19:03;96846.31;;;27.13;59.69
55289;BME280;41154;45.394;5.734;2022-08-21T13:21:34;96838.19;;;27.01;58.88
55289;BME280;41154;45.394;5.734;2022-08-21T13:24:12;96842.69;;;27.71;57.83
55289;BME280;41154;45.394;5.734;2022-08-21T13:26:40;96833.03;;;27.19;58.71
55289;BME280;41154;45.394;5.734;2022-08-21T13:29:08;96825.59;;;26.80;56.64
55289;BME280;41154;45.394;5.734;2022-08-21T13:31:36;96824.63;;;27.31;55.46
55289;BME280;41154;45.394;5.734;2022-08-21T13:34:03;96821.13;;;26.40;57.49
55289;BME280;41154;45.394;5.734;2022-08-21T13:36:32;96819.13;;;26.72;57.33
55289;BME280;41154;45.394;5.734;2022-08-21T13:38:59;96818.53;;;27.41;56.03
55289;BME280;41154;45.394;5.734;2022-08-21T13:41:34;96827.66;;;26.51;58.51
55289;BME280;41154;45.394;5.734;2022-08-21T13:44:12;96826.66;;;25.76;60.79
55289;BME280;41154;45.394;5.734;2022-08-21T13:46:39;96818.22;;;25.53;60.09
55289;BME280;41154;45.394;5.734;2022-08-21T13:49:06;96822.09;;;25.24;61.47
55289;BME280;41154;45.394;5.734;2022-08-21T13:51:34;96819.94;;;25.01;60.68
55289;BME280;41154;45.394;5.734;2022-08-21T13:54:01;96812.59;;;25.05;60.43
55289;BME280;41154;45.394;5.734;2022-08-21T13:56:33;96818.13;;;25.21;60.97
55289;BME280;41154;45.394;5.734;2022-08-21T13:59:06;96813.00;;;25.64;60.61
55289;BME280;41154;45.394;5.734;2022-08-21T14:01:36;96814.78;;;25.28;61.76
55289;BME280;41154;45.394;5.734;2022-08-21T14:04:22;96813.13;;;25.39;62.79
55289;BME280;41154;45.394;5.734;2022-08-21T14:06:49;96801.88;;;25.28;61.36
55289;BME280;41154;45.394;5.734;2022-08-21T14:11:50;96801.88;;;25.28;61.50
55289;BME280;41154;45.394;5.734;2022-08-21T14:14:29;96804.94;;;25.27;60.70
55289;BME280;41154;45.394;5.734;2022-08-21T14:17:05;96809.63;;;25.26;59.85
55289;BME280;41154;45.394;5.734;2022-08-21T14:19:43;96814.03;;;25.43;60.88
55289;BME280;41154;45.394;5.734;2022-08-21T14:22:27;96807.22;;;25.37;59.37
55289;BME280;41154;45.394;5.734;2022-08-21T14:25:04;96805.09;;;25.94;60.88
55289;BME280;41154;45.394;5.734;2022-08-21T14:27:32;96805.00;;;26.39;58.24
55289;BME280;41154;45.394;5.734;2022-08-21T14:30:11;96811.94;;;26.32;56.69